LJLJ/LJU METAR and TAF weather

Enter ICAO airport designator
Station Type Date Time Source
LJLJ METAR 2022/06/30 01:30 UTC NOAA

LJLJ 300130Z VRB02KT CAVOK 16/15 Q1012 NOSIG


Station Type Date Time Source
LJLJ Decoded METAR 2022/06/30 01:30 UTC NOAA

Ljubljana / Brnik, Slovenia (LJLJ) 46-13N 014-29E 362M
Jun 29, 2022 - 09:30 PM EDT / 2022.06.30 0130 UTC
Wind: Variable at 2 MPH (2 KT):0
Visibility: greater than 7 mile(s):0
Temperature: 60 F (16 C)
Dew Point: 59 F (15 C)
Relative Humidity: 93%
Pressure (altimeter): 29.88 in. Hg (1012 hPa)
ob: LJLJ 300130Z VRB02KT CAVOK 16/15 Q1012 NOSIG
cycle: 1

Station Type Date Time Source
LJLJ TAF 2022/06/29 18:07 UTC NOAA

TAF LJLJ 291700Z 2918/3018 27005KT 9999 FEW050 PROB40
TEMPO 3008/3015 -SHRA SCT050TCU PROB30
TEMPO 3009/3014 FEW050CB
TEMPO 3011/3018 24012KT

Example: see airport list